sensor_id;sensor_type;location;lat;lon;timestamp;pressure;altitude;pressure_sealevel;temperature;humidity
10145;BME280;5113;41.822;23.564;2023-02-22T00:01:14;-10946.37;;;0.43;100.00
10145;BME280;5113;41.822;23.564;2023-02-22T00:04:32;-10965.84;;;1.14;99.26
10145;BME280;5113;41.822;23.564;2023-02-22T00:07:40;-10977.63;;;1.56;96.36
10145;BME280;5113;41.822;23.564;2023-02-22T00:10:48;-10985.31;;;1.84;94.93
10145;BME280;5113;41.822;23.564;2023-02-22T00:13:57;-10973.81;;;1.43;96.36
10145;BME280;5113;41.822;23.564;2023-02-22T00:17:03;-10971.31;;;1.33;98.00
10145;BME280;5113;41.822;23.564;2023-02-22T00:20:12;-10967.66;;;1.20;98.29
10145;BME280;5113;41.822;23.564;2023-02-22T00:23:22;-10980.69;;;1.68;94.84
10145;BME280;5113;41.822;23.564;2023-02-22T00:26:32;-10947.22;;;0.46;100.00
10145;BME280;5113;41.822;23.564;2023-02-22T00:29:44;-10955.19;;;0.75;100.00
10145;BME280;5113;41.822;23.564;2023-02-22T00:32:52;-10961.50;;;0.98;99.77
10145;BME280;5113;41.822;23.564;2023-02-22T00:36:00;-10954.78;;;0.74;99.91
10145;BME280;5113;41.822;23.564;2023-02-22T00:39:06;-10951.69;;;0.62;100.00
10145;BME280;5113;41.822;23.564;2023-02-22T00:42:13;-10954.91;;;0.74;100.00
10145;BME280;5113;41.822;23.564;2023-02-22T00:45:24;-10958.41;;;0.87;100.00
10145;BME280;5113;41.822;23.564;2023-02-22T00:48:30;-10950.28;;;0.57;100.00
10145;BME280;5113;41.822;23.564;2023-02-22T00:51:37;-10955.34;;;0.76;100.00
10145;BME280;5113;41.822;23.564;2023-02-22T00:54:44;-10942.16;;;0.28;100.00
10145;BME280;5113;41.822;23.564;2023-02-22T00:57:50;-10954.22;;;0.72;100.00
10145;BME280;5113;41.822;23.564;2023-02-22T01:00:58;-10950.84;;;0.59;100.00
10145;BME280;5113;41.822;23.564;2023-02-22T01:04:05;-10971.88;;;1.36;99.21
10145;BME280;5113;41.822;23.564;2023-02-22T01:07:11;-10960.38;;;0.94;99.29
10145;BME280;5113;41.822;23.564;2023-02-22T01:10:20;-10969.34;;;1.26;99.64
10145;BME280;5113;41.822;23.564;2023-02-22T01:13:26;-10973.00;;;1.40;97.60
10145;BME280;5113;41.822;23.564;2023-02-22T01:16:34;-10962.06;;;1.00;99.67
10145;BME280;5113;41.822;23.564;2023-02-22T01:19:41;-10953.22;;;0.68;100.00
10145;BME280;5113;41.822;23.564;2023-02-22T01:22:49;-10953.09;;;0.68;100.00
10145;BME280;5113;41.822;23.564;2023-02-22T01:25:57;-10950.28;;;0.57;100.00
10145;BME280;5113;41.822;23.564;2023-02-22T01:29:03;-10941.59;;;0.26;100.00
10145;BME280;5113;41.822;23.564;2023-02-22T01:32:11;-10946.50;;;0.44;100.00
10145;BME280;5113;41.822;23.564;2023-02-22T01:35:21;-10936.56;;;0.08;100.00
10145;BME280;5113;41.822;23.564;2023-02-22T01:38:28;-10931.94;;;-0.09;100.00
10145;BME280;5113;41.822;23.564;2023-02-22T01:41:34;-10935.84;;;0.05;100.00
10145;BME280;5113;41.822;23.564;2023-02-22T01:44:41;-10958.13;;;0.86;100.00
10145;BME280;5113;41.822;23.564;2023-02-22T01:47:48;-10943.44;;;0.32;100.00
10145;BME280;5113;41.822;23.564;2023-02-22T01:50:57;-10950.56;;;0.58;100.00
10145;BME280;5113;41.822;23.564;2023-02-22T01:54:07;-10922.28;;;-0.44;100.00
10145;BME280;5113;41.822;23.564;2023-02-22T01:57:20;-10915.28;;;-0.70;100.00
10145;BME280;5113;41.822;23.564;2023-02-22T02:00:28;-10922.97;;;-0.42;100.00
10145;BME280;5113;41.822;23.564;2023-02-22T02:03:37;-10917.25;;;-0.62;100.00
10145;BME280;5113;41.822;23.564;2023-02-22T02:06:44;-10926.47;;;-0.29;100.00
10145;BME280;5113;41.822;23.564;2023-02-22T02:09:55;-10938.38;;;0.14;100.00
10145;BME280;5113;41.822;23.564;2023-02-22T02:13:02;-10932.38;;;-0.08;100.00
10145;BME280;5113;41.822;23.564;2023-02-22T02:16:09;-10936.00;;;0.06;100.00
10145;BME280;5113;41.822;23.564;2023-02-22T02:19:21;-10923.69;;;-0.39;100.00
10145;BME280;5113;41.822;23.564;2023-02-22T02:22:42;-10936.13;;;0.06;100.00
10145;BME280;5113;41.822;23.564;2023-02-22T02:26:17;-10953.66;;;0.70;100.00
10145;BME280;5113;41.822;23.564;2023-02-22T02:33:21;-10950.28;;;0.57;100.00
10145;BME280;5113;41.822;23.564;2023-02-22T02:36:31;-10956.03;;;0.78;100.00
10145;BME280;5113;41.822;23.564;2023-02-22T02:39:45;-10967.38;;;1.19;100.00
10145;BME280;5113;41.822;23.564;2023-02-22T02:42:59;-10960.66;;;0.95;100.00
10145;BME280;5113;41.822;23.564;2023-02-22T02:46:11;-10964.44;;;1.09;100.00
10145;BME280;5113;41.822;23.564;2023-02-22T02:49:25;-10963.19;;;1.04;100.00
10145;BME280;5113;41.822;23.564;2023-02-22T02:52:33;-10959.53;;;0.91;100.00
10145;BME280;5113;41.822;23.564;2023-02-22T02:55:40;-10968.50;;;1.23;100.00
10145;BME280;5113;41.822;23.564;2023-02-22T02:58:48;-10959.41;;;0.90;100.00
10145;BME280;5113;41.822;23.564;2023-02-22T03:02:16;-10951.13;;;0.60;100.00
10145;BME280;5113;41.822;23.564;2023-02-22T03:05:50;-10945.38;;;0.40;100.00
10145;BME280;5113;41.822;23.564;2023-02-22T03:09:09;-10921.72;;;-0.46;100.00
10145;BME280;5113;41.822;23.564;2023-02-22T03:12:25;-10916.97;;;-0.63;100.00
10145;BME280;5113;41.822;23.564;2023-02-22T03:15:43;-10926.34;;;-0.29;100.00
10145;BME280;5113;41.822;23.564;2023-02-22T03:18:58;-10949.88;;;0.56;100.00
10145;BME280;5113;41.822;23.564;2023-02-22T03:22:12;-10950.28;;;0.57;100.00
10145;BME280;5113;41.822;23.564;2023-02-22T03:25:24;-10948.31;;;0.50;100.00
10145;BME280;5113;41.822;23.564;2023-02-22T03:28:37;-10947.78;;;0.48;100.00
10145;BME280;5113;41.822;23.564;2023-02-22T03:31:50;-10948.06;;;0.49;100.00
10145;BME280;5113;41.822;23.564;2023-02-22T03:35:00;-10946.50;;;0.44;100.00
10145;BME280;5113;41.822;23.564;2023-02-22T03:38:11;-10910.78;;;-0.86;100.00
10145;BME280;5113;41.822;23.564;2023-02-22T03:41:21;-10909.13;;;-0.92;100.00
10145;BME280;5113;41.822;23.564;2023-02-22T03:44:30;-10920.16;;;-0.52;100.00
10145;BME280;5113;41.822;23.564;2023-02-22T03:47:45;-10905.19;;;-1.06;100.00
10145;BME280;5113;41.822;23.564;2023-02-22T03:50:54;-10904.06;;;-1.10;100.00
10145;BME280;5113;41.822;23.564;2023-02-22T03:54:03;-10904.22;;;-1.10;100.00
10145;BME280;5113;41.822;23.564;2023-02-22T03:57:13;-10902.53;;;-1.16;100.00
10145;BME280;5113;41.822;23.564;2023-02-22T04:00:23;-10905.91;;;-1.04;100.00
10145;BME280;5113;41.822;23.564;2023-02-22T04:03:30;-10907.00;;;-1.00;100.00
10145;BME280;5113;41.822;23.564;2023-02-22T04:06:36;-10934.31;;;-0.01;100.00
10145;BME280;5113;41.822;23.564;2023-02-22T04:09:43;-10932.63;;;-0.07;100.00
10145;BME280;5113;41.822;23.564;2023-02-22T04:12:50;-10948.06;;;0.49;100.00
10145;BME280;5113;41.822;23.564;2023-02-22T04:15:56;-10948.31;;;0.50;100.00
10145;BME280;5113;41.822;23.564;2023-02-22T04:19:03;-10931.25;;;-0.12;100.00
10145;BME280;5113;41.822;23.564;2023-02-22T04:22:10;-10927.03;;;-0.27;100.00
10145;BME280;5113;41.822;23.564;2023-02-22T04:25:18;-10940.75;;;0.23;100.00
10145;BME280;5113;41.822;23.564;2023-02-22T04:28:25;-10939.63;;;0.19;100.00
10145;BME280;5113;41.822;23.564;2023-02-22T04:31:31;-10936.28;;;0.07;100.00
10145;BME280;5113;41.822;23.564;2023-02-22T04:34:37;-10921.16;;;-0.48;100.00
10145;BME280;5113;41.822;23.564;2023-02-22T04:37:44;-10936.56;;;0.08;100.00
10145;BME280;5113;41.822;23.564;2023-02-22T04:40:52;-10941.03;;;0.24;100.00
10145;BME280;5113;41.822;23.564;2023-02-22T04:43:59;-10940.91;;;0.23;100.00
10145;BME280;5113;41.822;23.564;2023-02-22T04:47:05;-10940.06;;;0.20;100.00
10145;BME280;5113;41.822;23.564;2023-02-22T04:50:12;-10913.59;;;-0.76;100.00
10145;BME280;5113;41.822;23.564;2023-02-22T04:53:19;-10908.28;;;-0.95;100.00
10145;BME280;5113;41.822;23.564;2023-02-22T04:56:27;-10911.91;;;-0.82;100.00
10145;BME280;5113;41.822;23.564;2023-02-22T04:59:33;-10914.72;;;-0.72;100.00
10145;BME280;5113;41.822;23.564;2023-02-22T05:02:40;-10912.91;;;-0.78;100.00
10145;BME280;5113;41.822;23.564;2023-02-22T05:05:46;-10911.34;;;-0.84;100.00
10145;BME280;5113;41.822;23.564;2023-02-22T05:08:53;-10916.41;;;-0.65;100.00
10145;BME280;5113;41.822;23.564;2023-02-22T05:12:00;-10919.34;;;-0.55;100.00
10145;BME280;5113;41.822;23.564;2023-02-22T05:15:08;-10927.03;;;-0.27;100.00
10145;BME280;5113;41.822;23.564;2023-02-22T05:18:15;-10936.56;;;0.08;100.00
10145;BME280;5113;41.822;23.564;2023-02-22T05:21:21;-10919.19;;;-0.55;100.00
10145;BME280;5113;41.822;23.564;2023-02-22T05:24:27;-10938.09;;;0.13;100.00
10145;BME280;5113;41.822;23.564;2023-02-22T05:27:35;-10926.75;;;-0.28;100.00
10145;BME280;5113;41.822;23.564;2023-02-22T05:30:42;-10944.25;;;0.36;100.00
10145;BME280;5113;41.822;23.564;2023-02-22T05:33:49;-10948.59;;;0.51;100.00
10145;BME280;5113;41.822;23.564;2023-02-22T05:36:55;-10925.78;;;-0.31;100.00
10145;BME280;5113;41.822;23.564;2023-02-22T05:40:02;-10916.13;;;-0.67;100.00
10145;BME280;5113;41.822;23.564;2023-02-22T05:43:09;-10942.44;;;0.29;100.00
10145;BME280;5113;41.822;23.564;2023-02-22T05:46:15;-10962.75;;;1.03;100.00
10145;BME280;5113;41.822;23.564;2023-02-22T05:49:22;-10966.53;;;1.16;100.00
10145;BME280;5113;41.822;23.564;2023-02-22T05:52:28;-10968.50;;;1.23;100.00
10145;BME280;5113;41.822;23.564;2023-02-22T05:55:35;-10952.66;;;0.66;100.00
10145;BME280;5113;41.822;23.564;2023-02-22T05:58:42;-10943.56;;;0.33;100.00
10145;BME280;5113;41.822;23.564;2023-02-22T06:01:49;-10956.03;;;0.78;100.00
10145;BME280;5113;41.822;23.564;2023-02-22T06:04:55;-10952.66;;;0.66;100.00
10145;BME280;5113;41.822;23.564;2023-02-22T06:08:03;-10951.69;;;0.62;100.00
10145;BME280;5113;41.822;23.564;2023-02-22T06:11:10;-10970.19;;;1.29;100.00
10145;BME280;5113;41.822;23.564;2023-02-22T06:14:18;-10968.22;;;1.22;100.00
10145;BME280;5113;41.822;23.564;2023-02-22T06:17:25;-10958.69;;;0.88;100.00
10145;BME280;5113;41.822;23.564;2023-02-22T06:20:31;-10944.13;;;0.35;100.00
10145;BME280;5113;41.822;23.564;2023-02-22T06:23:39;-10979.44;;;1.63;100.00
10145;BME280;5113;41.822;23.564;2023-02-22T06:26:45;-10969.63;;;1.27;100.00
10145;BME280;5113;41.822;23.564;2023-02-22T06:29:53;-10975.22;;;1.48;100.00
10145;BME280;5113;41.822;23.564;2023-02-22T06:33:00;-10981.41;;;1.70;100.00
10145;BME280;5113;41.822;23.564;2023-02-22T06:36:07;-10999.63;;;2.36;98.27
10145;BME280;5113;41.822;23.564;2023-02-22T06:39:15;-11014.47;;;2.90;95.45
10145;BME280;5113;41.822;23.564;2023-02-22T06:42:23;-11029.22;;;3.43;92.44
10145;BME280;5113;41.822;23.564;2023-02-22T06:45:30;-11012.94;;;2.84;94.46
10145;BME280;5113;41.822;23.564;2023-02-22T06:48:37;-11011.41;;;2.79;98.16
10145;BME280;5113;41.822;23.564;2023-02-22T06:51:44;-11023.31;;;3.22;94.98
10145;BME280;5113;41.822;23.564;2023-02-22T06:54:52;-11026.41;;;3.33;93.97
10145;BME280;5113;41.822;23.564;2023-02-22T06:57:58;-11037.63;;;3.74;91.21
10145;BME280;5113;41.822;23.564;2023-02-22T07:01:06;-11047.59;;;4.10;88.27
10145;BME280;5113;41.822;23.564;2023-02-22T07:04:13;-11051.50;;;4.24;87.27
10145;BME280;5113;41.822;23.564;2023-02-22T07:07:21;-11059.38;;;4.52;83.53
10145;BME280;5113;41.822;23.564;2023-02-22T07:10:30;-11058.97;;;4.51;82.48
10145;BME280;5113;41.822;23.564;2023-02-22T07:13:37;-11071.31;;;4.95;79.15
10145;BME280;5113;41.822;23.564;2023-02-22T07:16:44;-11082.13;;;5.35;75.65
10145;BME280;5113;41.822;23.564;2023-02-22T07:19:51;-11087.44;;;5.54;74.71
10145;BME280;5113;41.822;23.564;2023-02-22T07:22:58;-11084.34;;;5.43;75.46
10145;BME280;5113;41.822;23.564;2023-02-22T07:26:05;-11088.00;;;5.56;73.65
10145;BME280;5113;41.822;23.564;2023-02-22T07:29:11;-11092.38;;;5.72;70.46
10145;BME280;5113;41.822;23.564;2023-02-22T07:32:19;-11118.34;;;6.66;66.87
10145;BME280;5113;41.822;23.564;2023-02-22T07:35:28;-11128.19;;;7.01;65.51
10145;BME280;5113;41.822;23.564;2023-02-22T07:38:34;-11127.75;;;7.00;66.43
10145;BME280;5113;41.822;23.564;2023-02-22T07:41:40;-11119.19;;;6.69;66.89
10145;BME280;5113;41.822;23.564;2023-02-22T07:44:46;-11121.72;;;6.78;66.67
10145;BME280;5113;41.822;23.564;2023-02-22T07:47:54;-11131.25;;;7.12;65.44
10145;BME280;5113;41.822;23.564;2023-02-22T07:51:01;-11139.00;;;7.40;64.46
10145;BME280;5113;41.822;23.564;2023-02-22T07:54:07;-11133.94;;;7.22;65.30
10145;BME280;5113;41.822;23.564;2023-02-22T07:57:14;-11142.22;;;7.52;64.30
10145;BME280;5113;41.822;23.564;2023-02-22T08:00:22;-11154.16;;;7.95;62.62
10145;BME280;5113;41.822;23.564;2023-02-22T08:03:32;-11155.16;;;7.99;62.59
10145;BME280;5113;41.822;23.564;2023-02-22T08:06:40;-11156.56;;;8.04;62.76
10145;BME280;5113;41.822;23.564;2023-02-22T08:09:50;-11171.59;;;8.58;60.46
10145;BME280;5113;41.822;23.564;2023-02-22T08:12:56;-11176.50;;;8.76;60.54
10145;BME280;5113;41.822;23.564;2023-02-22T08:16:03;-11189.88;;;9.24;59.31
10145;BME280;5113;41.822;23.564;2023-02-22T08:19:11;-11165.84;;;8.37;60.55
10145;BME280;5113;41.822;23.564;2023-02-22T08:22:18;-11178.47;;;8.83;59.36
10145;BME280;5113;41.822;23.564;2023-02-22T08:25:27;-11179.03;;;8.85;58.86
10145;BME280;5113;41.822;23.564;2023-02-22T08:28:34;-11193.09;;;9.36;58.50
10145;BME280;5113;41.822;23.564;2023-02-22T08:31:41;-11203.22;;;9.72;57.42
10145;BME280;5113;41.822;23.564;2023-02-22T08:34:49;-11201.81;;;9.67;58.01
10145;BME280;5113;41.822;23.564;2023-02-22T08:37:57;-11191.13;;;9.28;56.72
10145;BME280;5113;41.822;23.564;2023-02-22T08:41:03;-11201.53;;;9.66;56.31
10145;BME280;5113;41.822;23.564;2023-02-22T08:44:10;-11208.84;;;9.92;53.67
10145;BME280;5113;41.822;23.564;2023-02-22T08:47:17;-11210.81;;;10.00;53.13
10145;BME280;5113;41.822;23.564;2023-02-22T08:50:26;-11212.22;;;10.05;52.27
10145;BME280;5113;41.822;23.564;2023-02-22T08:53:33;-11236.56;;;10.93;50.81
10145;BME280;5113;41.822;23.564;2023-02-22T08:56:39;-11235.31;;;10.88;50.28
10145;BME280;5113;41.822;23.564;2023-02-22T08:59:45;-11235.31;;;10.88;50.55
10145;BME280;5113;41.822;23.564;2023-02-22T09:02:52;-11229.66;;;10.68;50.30
10145;BME280;5113;41.822;23.564;2023-02-22T09:05:59;-11252.03;;;11.48;49.07
10145;BME280;5113;41.822;23.564;2023-02-22T09:09:05;-11269.22;;;12.10;47.54
10145;BME280;5113;41.822;23.564;2023-02-22T09:12:12;-11256.41;;;11.64;48.58
10145;BME280;5113;41.822;23.564;2023-02-22T09:15:18;-11264.72;;;11.94;47.82
10145;BME280;5113;41.822;23.564;2023-02-22T09:18:26;-11267.38;;;12.04;47.50
10145;BME280;5113;41.822;23.564;2023-02-22T09:21:52;-11275.13;;;12.32;47.06
10145;BME280;5113;41.822;23.564;2023-02-22T09:24:59;-11290.47;;;12.87;46.35
10145;BME280;5113;41.822;23.564;2023-02-22T09:28:18;-11289.34;;;12.83;44.73
10145;BME280;5113;41.822;23.564;2023-02-22T09:31:25;-11306.22;;;13.44;44.77
10145;BME280;5113;41.822;23.564;2023-02-22T09:34:31;-11302.56;;;13.31;44.75
10145;BME280;5113;41.822;23.564;2023-02-22T09:37:40;-11320.59;;;13.96;45.10
10145;BME280;5113;41.822;23.564;2023-02-22T09:40:52;-11331.00;;;14.33;42.18
10145;BME280;5113;41.822;23.564;2023-02-22T09:44:10;-11328.75;;;14.25;43.01
10145;BME280;5113;41.822;23.564;2023-02-22T09:47:23;-11339.75;;;14.65;41.81
10145;BME280;5113;41.822;23.564;2023-02-22T09:50:39;-11347.50;;;14.93;41.04
10145;BME280;5113;41.822;23.564;2023-02-22T09:53:50;-11342.84;;;14.76;41.55
10145;BME280;5113;41.822;23.564;2023-02-22T09:56:59;-11342.28;;;14.74;41.06
10145;BME280;5113;41.822;23.564;2023-02-22T10:00:13;-11354.25;;;15.17;40.48
10145;BME280;5113;41.822;23.564;2023-02-22T10:03:24;-11369.47;;;15.72;38.96
10145;BME280;5113;41.822;23.564;2023-02-22T10:06:34;-11357.34;;;15.28;39.63
10145;BME280;5113;41.822;23.564;2023-02-22T10:09:44;-11390.19;;;16.46;39.82
10145;BME280;5113;41.822;23.564;2023-02-22T10:12:57;-11385.38;;;16.29;38.50
10145;BME280;5113;41.822;23.564;2023-02-22T10:16:10;-11383.13;;;16.21;38.04
10145;BME280;5113;41.822;23.564;2023-02-22T10:19:26;-11388.63;;;16.41;37.45
10145;BME280;5113;41.822;23.564;2023-02-22T10:22:41;-11387.06;;;16.35;35.44
10145;BME280;5113;41.822;23.564;2023-02-22T10:25:55;-11381.88;;;16.16;35.91
10145;BME280;5113;41.822;23.564;2023-02-22T10:29:11;-11401.72;;;16.88;34.39
10145;BME280;5113;41.822;23.564;2023-02-22T10:32:41;-11405.53;;;17.02;34.42
10145;BME280;5113;41.822;23.564;2023-02-22T10:35:51;-11399.75;;;16.81;34.68
10145;BME280;5113;41.822;23.564;2023-02-22T10:38:58;-11404.84;;;16.99;33.13
10145;BME280;5113;41.822;23.564;2023-02-22T10:42:07;-11403.56;;;16.95;32.28
10145;BME280;5113;41.822;23.564;2023-02-22T10:45:20;-11413.72;;;17.31;31.92
10145;BME280;5113;41.822;23.564;2023-02-22T10:48:28;-11425.84;;;17.75;32.81
10145;BME280;5113;41.822;23.564;2023-02-22T10:51:36;-11430.50;;;17.92;32.82
10145;BME280;5113;41.822;23.564;2023-02-22T10:54:47;-11438.53;;;18.21;32.24
10145;BME280;5113;41.822;23.564;2023-02-22T10:58:01;-11421.88;;;17.61;31.14
10145;BME280;5113;41.822;23.564;2023-02-22T11:01:22;-11427.53;;;17.81;31.74
10145;BME280;5113;41.822;23.564;2023-02-22T11:04:45;-11441.19;;;18.30;30.98
10145;BME280;5113;41.822;23.564;2023-02-22T11:08:12;-11430.50;;;17.92;30.11
10145;BME280;5113;41.822;23.564;2023-02-22T11:11:22;-11420.63;;;17.56;29.71
10145;BME280;5113;41.822;23.564;2023-02-22T11:14:30;-11437.41;;;18.17;29.77
10145;BME280;5113;41.822;23.564;2023-02-22T11:17:36;-11428.38;;;17.84;29.17
10145;BME280;5113;41.822;23.564;2023-02-22T11:20:44;-11440.63;;;18.28;29.46
10145;BME280;5113;41.822;23.564;2023-02-22T11:24:00;-11427.53;;;17.81;30.46
10145;BME280;5113;41.822;23.564;2023-02-22T11:27:07;-11437.81;;;18.18;30.34
10145;BME280;5113;41.822;23.564;2023-02-22T11:30:25;-11421.19;;;17.58;29.61
10145;BME280;5113;41.822;23.564;2023-02-22T11:33:33;-11456.72;;;18.86;29.14
10145;BME280;5113;41.822;23.564;2023-02-22T11:36:41;-11438.38;;;18.20;29.27
10145;BME280;5113;41.822;23.564;2023-02-22T11:40:04;-11461.09;;;19.02;28.86
10145;BME280;5113;41.822;23.564;2023-02-22T11:43:15;-11455.31;;;18.81;29.49
10145;BME280;5113;41.822;23.564;2023-02-22T11:46:25;-11458.25;;;18.92;28.83
10145;BME280;5113;41.822;23.564;2023-02-22T11:49:35;-11464.19;;;19.13;28.32
10145;BME280;5113;41.822;23.564;2023-02-22T11:52:44;-11449.38;;;18.60;29.63
10145;BME280;5113;41.822;23.564;2023-02-22T11:56:09;-11448.81;;;18.58;30.31
10145;BME280;5113;41.822;23.564;2023-02-22T11:59:26;-11465.03;;;19.16;29.61
10145;BME280;5113;41.822;23.564;2023-02-22T12:02:50;-11438.94;;;18.22;29.93
10145;BME280;5113;41.822;23.564;2023-02-22T12:06:13;-11437.41;;;18.17;29.75
10145;BME280;5113;41.822;23.564;2023-02-22T12:09:30;-11451.91;;;18.69;30.00
10145;BME280;5113;41.822;23.564;2023-02-22T12:12:51;-11440.22;;;18.27;29.40
10145;BME280;5113;41.822;23.564;2023-02-22T12:16:08;-11455.03;;;18.80;30.27
10145;BME280;5113;41.822;23.564;2023-02-22T12:19:26;-11440.63;;;18.28;30.57
10145;BME280;5113;41.822;23.564;2023-02-22T12:22:41;-11462.50;;;19.07;30.10
10145;BME280;5113;41.822;23.564;2023-02-22T12:25:56;-11470.25;;;19.35;30.07
10145;BME280;5113;41.822;23.564;2023-02-22T12:29:10;-11475.19;;;19.53;29.72
10145;BME280;5113;41.822;23.564;2023-02-22T12:32:24;-11487.03;;;19.95;29.65
10145;BME280;5113;41.822;23.564;2023-02-22T12:35:36;-11471.09;;;19.38;30.87
10145;BME280;5113;41.822;23.564;2023-02-22T12:38:48;-11468.13;;;19.27;30.65
10145;BME280;5113;41.822;23.564;2023-02-22T12:41:58;-11453.63;;;18.75;31.15
10145;BME280;5113;41.822;23.564;2023-02-22T12:45:11;-11455.59;;;18.82;31.20
10145;BME280;5113;41.822;23.564;2023-02-22T12:48:34;-11462.34;;;19.06;31.06
10145;BME280;5113;41.822;23.564;2023-02-22T12:51:48;-11457.69;;;18.90;31.40
10145;BME280;5113;41.822;23.564;2023-02-22T12:55:03;-11460.09;;;18.98;31.85
10145;BME280;5113;41.822;23.564;2023-02-22T12:58:17;-11456.44;;;18.85;31.66
10145;BME280;5113;41.822;23.564;2023-02-22T13:01:31;-11462.91;;;19.08;31.55
10145;BME280;5113;41.822;23.564;2023-02-22T13:04:40;-11460.66;;;19.00;31.77
10145;BME280;5113;41.822;23.564;2023-02-22T13:07:54;-11464.88;;;19.16;32.22
10145;BME280;5113;41.822;23.564;2023-02-22T13:11:15;-11474.06;;;19.49;32.07
10145;BME280;5113;41.822;23.564;2023-02-22T13:14:48;-11463.47;;;19.10;32.26
10145;BME280;5113;41.822;23.564;2023-02-22T13:18:07;-11461.66;;;19.04;32.33
10145;BME280;5113;41.822;23.564;2023-02-22T13:21:19;-11463.19;;;19.09;31.90
10145;BME280;5113;41.822;23.564;2023-02-22T13:24:34;-11461.78;;;19.04;32.15
10145;BME280;5113;41.822;23.564;2023-02-22T13:27:50;-11466.16;;;19.20;32.05
10145;BME280;5113;41.822;23.564;2023-02-22T13:31:13;-11460.94;;;19.01;32.49
10145;BME280;5113;41.822;23.564;2023-02-22T13:34:48;-11457.84;;;18.90;32.16
10145;BME280;5113;41.822;23.564;2023-02-22T13:38:17;-11459.97;;;18.98;32.09
10145;BME280;5113;41.822;23.564;2023-02-22T13:41:45;-11457.13;;;18.88;32.02
10145;BME280;5113;41.822;23.564;2023-02-22T13:45:25;-11472.78;;;19.44;31.53
10145;BME280;5113;41.822;23.564;2023-02-22T13:49:08;-11459.41;;;18.96;32.43
10145;BME280;5113;41.822;23.564;2023-02-22T13:52:23;-11457.00;;;18.87;32.76
10145;BME280;5113;41.822;23.564;2023-02-22T13:55:33;-11458.97;;;18.94;32.38
10145;BME280;5113;41.822;23.564;2023-02-22T13:59:01;-11462.63;;;19.07;32.70
10145;BME280;5113;41.822;23.564;2023-02-22T14:02:30;-11463.06;;;19.09;32.80
10145;BME280;5113;41.822;23.564;2023-02-22T14:05:48;-11480.97;;;19.73;32.23
10145;BME280;5113;41.822;23.564;2023-02-22T14:08:56;-11453.03;;;18.73;32.82
10145;BME280;5113;41.822;23.564;2023-02-22T14:12:03;-11465.72;;;19.19;33.13
10145;BME280;5113;41.822;23.564;2023-02-22T14:15:16;-11458.69;;;18.93;32.72
10145;BME280;5113;41.822;23.564;2023-02-22T14:18:35;-11463.06;;;19.09;32.86
10145;BME280;5113;41.822;23.564;2023-02-22T14:21:57;-11433.72;;;18.03;33.96
10145;BME280;5113;41.822;23.564;2023-02-22T14:25:28;-11429.09;;;17.87;34.73
10145;BME280;5113;41.822;23.564;2023-02-22T14:28:47;-11430.06;;;17.90;34.74
10145;BME280;5113;41.822;23.564;2023-02-22T14:32:01;-11441.47;;;18.31;34.48
10145;BME280;5113;41.822;23.564;2023-02-22T14:35:12;-11449.09;;;18.59;33.98
10145;BME280;5113;41.822;23.564;2023-02-22T14:38:32;-11455.03;;;18.80;33.95
10145;BME280;5113;41.822;23.564;2023-02-22T14:41:43;-11449.81;;;18.61;34.24
10145;BME280;5113;41.822;23.564;2023-02-22T14:44:58;-11453.19;;;18.73;34.05
10145;BME280;5113;41.822;23.564;2023-02-22T14:48:16;-11445.44;;;18.45;34.70
10145;BME280;5113;41.822;23.564;2023-02-22T14:51:25;-11443.47;;;18.38;34.84
10145;BME280;5113;41.822;23.564;2023-02-22T14:54:37;-11419.22;;;17.51;35.92
10145;BME280;5113;41.822;23.564;2023-02-22T14:57:57;-11423.72;;;17.67;35.47
10145;BME280;5113;41.822;23.564;2023-02-22T15:01:21;-11396.53;;;16.69;37.19
10145;BME280;5113;41.822;23.564;2023-02-22T15:04:36;-11384.81;;;16.27;37.75
10145;BME280;5113;41.822;23.564;2023-02-22T15:07:51;-11385.81;;;16.31;38.18
10145;BME280;5113;41.822;23.564;2023-02-22T15:10:58;-11370.16;;;15.74;39.02
10145;BME280;5113;41.822;23.564;2023-02-22T15:14:16;-11369.03;;;15.70;38.97
10145;BME280;5113;41.822;23.564;2023-02-22T15:17:29;-11363.81;;;15.51;39.01
10145;BME280;5113;41.822;23.564;2023-02-22T15:20:37;-11356.66;;;15.26;39.30
10145;BME280;5113;41.822;23.564;2023-02-22T15:23:44;-11350.16;;;15.02;39.69
10145;BME280;5113;41.822;23.564;2023-02-22T15:26:53;-11345.66;;;14.86;39.96
10145;BME280;5113;41.822;23.564;2023-02-22T15:30:14;-11344.38;;;14.81;39.93
10145;BME280;5113;41.822;23.564;2023-02-22T15:33:28;-11338.75;;;14.61;40.13
10145;BME280;5113;41.822;23.564;2023-02-22T15:36:44;-11338.91;;;14.62;40.07
10145;BME280;5113;41.822;23.564;2023-02-22T15:39:52;-11332.13;;;14.37;40.78
10145;BME280;5113;41.822;23.564;2023-02-22T15:43:06;-11324.25;;;14.09;41.50
10145;BME280;5113;41.822;23.564;2023-02-22T15:46:13;-11324.25;;;14.09;41.12
10145;BME280;5113;41.822;23.564;2023-02-22T15:49:20;-11322.00;;;14.01;41.47
10145;BME280;5113;41.822;23.564;2023-02-22T15:52:29;-11316.94;;;13.82;42.16
10145;BME280;5113;41.822;23.564;2023-02-22T15:55:38;-11314.97;;;13.75;42.09
10145;BME280;5113;41.822;23.564;2023-02-22T15:58:47;-11312.41;;;13.66;42.04
10145;BME280;5113;41.822;23.564;2023-02-22T16:01:53;-11307.06;;;13.47;42.79
10145;BME280;5113;41.822;23.564;2023-02-22T16:05:04;-11297.63;;;13.13;43.77
10145;BME280;5113;41.822;23.564;2023-02-22T16:08:16;-11290.03;;;12.85;44.69
10145;BME280;5113;41.822;23.564;2023-02-22T16:11:25;-11287.34;;;12.76;44.66
10145;BME280;5113;41.822;23.564;2023-02-22T16:14:40;-11275.97;;;12.35;46.27
10145;BME280;5113;41.822;23.564;2023-02-22T16:17:49;-11278.63;;;12.44;45.47
10145;BME280;5113;41.822;23.564;2023-02-22T16:21:07;-11266.81;;;12.02;46.49
10145;BME280;5113;41.822;23.564;2023-02-22T16:24:26;-11261.59;;;11.83;47.28
10145;BME280;5113;41.822;23.564;2023-02-22T16:27:39;-11256.69;;;11.65;48.21
10145;BME280;5113;41.822;23.564;2023-02-22T16:30:55;-11254.16;;;11.56;48.47
10145;BME280;5113;41.822;23.564;2023-02-22T16:34:03;-11264.44;;;11.93;46.46
10145;BME280;5113;41.822;23.564;2023-02-22T16:37:19;-11253.31;;;11.53;48.08
10145;BME280;5113;41.822;23.564;2023-02-22T16:40:30;-11253.16;;;11.52;48.08
10145;BME280;5113;41.822;23.564;2023-02-22T16:43:38;-11243.88;;;11.19;48.86